Anthem Of The Seas — C6BI7 — position and weather

sailwx.info

Track history (hours):
 
Tides and Currents Weather Stations Pressure Air Temp Water Temp Dewpoint Dewpoint Depression Visibility Wind Speed Wind Dir Waves Ship Positions

Anthem Of The Seas

Last reported at 2018-Sep-17 06:00 UTC. Time now 2018-Sep-19 03:23 UTC.
Position N 33°18' W 065°30'.

Length 348 m; draft 8.7 m.

Type: Passenger vessel. MMSI: 311000274.

Wind from 100 at 20 knots

Barometer 1019.5 mb
Air temperature 28.0 ° C
Water temperature 29.0 ° C

Date/timePositionNaut miles runAvg speedWind from/ knotsBaromVisibWave heightAir tempDewpointWater temp
2018-Sep-17 06:00N 33°18' W 065°30'3919.5 100 / 201019.5 28.0 29.0
2018-Sep-17 04:00N 33°48' W 066°00'41818.0 120 / 191020.3 28.0 29.0
2018-Sep-16 04:50N 38°52' W 071°56'917.7
2018-Sep-16 04:20N 38°59' W 072°04'517.4
2018-Sep-16 04:02N 39°03' W 072°08'017.3
2018-Sep-16 04:00N 39°03' W 072°09'1617.5
2018-Sep-16 03:06N 39°14' W 072°23'917.8
2018-Sep-16 02:35N 39°21' W 072°31'217.9
2018-Sep-16 02:28N 39°22' W 072°33'817.5
2018-Sep-16 02:03N 39°28' W 072°39'117.4
2018-Sep-16 02:00N 39°28' W 072°40'917.5
2018-Sep-16 01:30N 39°35' W 072°48'817.8
2018-Sep-16 01:03N 39°41' W 072°55'117.6
2018-Sep-16 01:00N 39°41' W 072°56'917.7
2018-Sep-16 00:30N 39°48' W 073°04'817.5
2018-Sep-16 00:04N 39°53' W 073°11'117.4
2018-Sep-16 00:00N 39°54' W 073°12'917.2
2018-Sep-15 23:30N 40°00' W 073°19'817.2
2018-Sep-15 23:04N 40°06' W 073°26'216.8
2018-Sep-15 22:57N 40°07' W 073°27'817.2
2018-Sep-15 22:30N 40°13' W 073°34'816.9
2018-Sep-15 22:03N 40°19' W 073°40'117.2
2018-Sep-15 22:00N 40°20' W 073°41'817.0
2018-Sep-15 21:30N 40°26' W 073°48'511.9
2018-Sep-15 21:03N 40°29' W 073°54'117.0
2018-Sep-15 21:01N 40°29' W 073°55'815.5
2018-Sep-15 20:30N 40°35' W 074°02'511.1
2018-Sep-15 20:03N 40°40' W 074°04'0 1.0
2018-Sep-15 19:58N 40°40' W 074°04'0 0.0
2018-Sep-15 19:28N 40°40' W 074°04'0 0.0
2018-Sep-15 19:01N 40°40' W 074°04'0 0.0
2018-Sep-15 18:58N 40°40' W 074°04'0 0.0
2018-Sep-15 18:28N 40°40' W 074°04'0 0.0
2018-Sep-15 17:58N 40°40' W 074°04'0 0.0
2018-Sep-15 17:28N 40°40' W 074°04'0 0.0
2018-Sep-15 16:58N 40°40' W 074°04'0 0.0
2018-Sep-15 16:28N 40°40' W 074°04'0 0.0
2018-Sep-15 15:58N 40°40' W 074°04'0 0.0
2018-Sep-15 15:28N 40°40' W 074°04'0 0.0
2018-Sep-15 14:58N 40°40' W 074°04'0 0.0
2018-Sep-15 13:58N 40°40' W 074°04'0 0.0
2018-Sep-15 13:28N 40°40' W 074°04'0 0.0
2018-Sep-15 12:58N 40°40' W 074°04'0 0.0
2018-Sep-15 12:28N 40°40' W 074°04'0 0.0
2018-Sep-15 11:58N 40°40' W 074°04'0 0.0
2018-Sep-15 11:28N 40°40' W 074°04'0 0.0
2018-Sep-15 11:03N 40°40' W 074°04'0 0.0
2018-Sep-15 11:00N 40°40' W 074°04'1 2.3
2018-Sep-15 10:30N 40°39' W 074°03'614.3
2018-Sep-15 10:04N 40°33' W 074°02'116.6
2018-Sep-15 10:01N 40°32' W 074°01'917.9
2018-Sep-15 09:30N 40°28' W 073°51'511.2
2018-Sep-15 09:04N 40°27' W 073°44'114.5
2018-Sep-15 09:00N 40°27' W 073°43'815.4
2018-Sep-15 08:30N 40°28' W 073°33'613.4
2018-Sep-15 08:03N 40°29' W 073°25'115.5
2018-Sep-15 08:00N 40°29' W 073°24'815.8
2018-Sep-15 07:30N 40°29' W 073°14'715.8
2018-Sep-15 07:03N 40°30' W 073°04'115.7
2018-Sep-15 07:00N 40°30' W 073°03'815.6
2018-Sep-15 06:30N 40°30' W 072°53'715.7
2018-Sep-15 06:04N 40°30' W 072°44'115.7
2018-Sep-15 06:01N 40°30' W 072°43'142.8
2018-Sep-15 06:00N 40°30' W 072°42'714.9 030 / 141022.510.8 22.0 22.0
2018-Sep-15 05:30N 40°31' W 072°32'815.4
2018-Sep-15 05:00N 40°31' W 072°22'815.6
2018-Sep-15 04:30N 40°31' W 072°12'816.3
2018-Sep-15 04:01N 40°31' W 072°02'117.6
2018-Sep-15 03:59N 40°31' W 072°01'815.7
2018-Sep-15 03:30N 40°31' W 071°51'715.5
2018-Sep-15 03:03N 40°32' W 071°42'115.5
2018-Sep-15 03:00N 40°32' W 071°41'815.3
2018-Sep-15 02:28N 40°32' W 071°30'615.4
2018-Sep-15 02:03N 40°32' W 071°22'115.6
2018-Sep-15 02:00N 40°32' W 071°21'815.5
2018-Sep-15 01:30N 40°32' W 071°10'715.3
2018-Sep-15 01:03N 40°32' W 071°01'115.4
2018-Sep-15 01:00N 40°32' W 071°00'815.4
2018-Sep-15 00:30N 40°33' W 070°50'715.4
2018-Sep-15 00:03N 40°33' W 070°41'115.5
2018-Sep-15 00:00N 40°33' W 070°40'815.5
2018-Sep-14 23:28N 40°33' W 070°29'615.8
2018-Sep-14 23:03N 40°33' W 070°21'115.6
2018-Sep-14 23:00N 40°33' W 070°20'815.7
2018-Sep-14 22:30N 40°33' W 070°09'716.4
2018-Sep-14 22:03N 40°33' W 069°59'116.7
2018-Sep-14 22:00N 40°33' W 069°58'816.6
2018-Sep-14 21:30N 40°32' W 069°47'816.7
2018-Sep-14 21:03N 40°33' W 069°38'116.5
2018-Sep-14 21:00N 40°33' W 069°36'816.5
2018-Sep-14 20:30N 40°34' W 069°26'716.3
2018-Sep-14 20:03N 40°34' W 069°16'116.1
2018-Sep-14 20:00N 40°34' W 069°15'1215.7
2018-Sep-14 19:14N 40°43' W 069°04'316.0
2018-Sep-14 19:02N 40°45' W 069°01'115.8
2018-Sep-14 19:00N 40°46' W 069°01'1115.9
2018-Sep-14 18:19N 40°55' W 068°53'715.2
2018-Sep-14 17:52N 41°01' W 068°49'514.9
2018-Sep-14 17:30N 41°06' W 068°46'815.0
2018-Sep-14 17:00N 41°13' W 068°42'714.9
2018-Sep-14 16:30N 41°20' W 068°39'815.1
2018-Sep-14 15:59N 41°27' W 068°34'715.0
2018-Sep-14 15:30N 41°33' W 068°31'614.2
2018-Sep-14 15:03N 41°40' W 068°28'111.6
2018-Sep-14 15:01N 41°40' W 068°28'510.8
2018-Sep-14 14:30N 41°45' W 068°25'711.4
2018-Sep-14 13:56N 41°51' W 068°21'912.1
2018-Sep-14 13:12N 41°59' W 068°17'212.2
2018-Sep-14 13:02N 42°01' W 068°16'312.4
2018-Sep-14 12:50N 42°03' W 068°14'412.4
2018-Sep-14 12:30N 42°07' W 068°12'612.5
2018-Sep-14 12:01N 42°13' W 068°09'112.7
2018-Sep-14 11:54N 42°14' W 068°08'713.3
2018-Sep-14 11:23N 42°20' W 068°04'513.9
2018-Sep-14 11:03N 42°25' W 068°02'114.0
2018-Sep-14 11:00N 42°25' W 068°01'713.4
2018-Sep-14 10:31N 42°31' W 067°58'712.8
2018-Sep-14 09:58N 42°38' W 067°54'612.2
2018-Sep-14 09:29N 42°43' W 067°51'812.7
2018-Sep-14 08:52N 42°50' W 067°46'812.7
2018-Sep-14 08:13N 42°58' W 067°42'212.7
2018-Sep-14 08:01N 43°00' W 067°41'2726.1
2018-Sep-14 07:00N 43°24' W 067°24'136 2.8 340 / 111024.410.8 19.0 18.0
2018-Sep-12 06:00N 43°42' W 064°18'169 3.8 210 / 291021.9 5.4 23.0 20.0
2018-Sep-10 09:02N 44°14' W 068°08'1 9.8
2018-Sep-10 08:56N 44°13' W 068°08'410.3
2018-Sep-10 08:30N 44°09' W 068°08'610.5
2018-Sep-10 07:57N 44°03' W 068°09'510.4
2018-Sep-10 07:30N 43°59' W 068°11'510.7
2018-Sep-10 07:01N 43°54' W 068°14'010.9
2018-Sep-10 06:59N 43°54' W 068°15'510.7
2018-Sep-10 06:30N 43°49' W 068°18'510.5
2018-Sep-10 06:03N 43°45' W 068°22'110.3
2018-Sep-10 06:00N 43°45' W 068°22'42171.8
2018-Sep-10 06:00N 43°42' W 068°18'714.1 060 / 181028.510.8 16.0 17.0
2018-Sep-10 05:29N 43°41' W 068°28'510.8
2018-Sep-10 05:03N 43°38' W 068°33'510.9
2018-Sep-10 04:34N 43°35' W 068°38'811.0
2018-Sep-10 03:50N 43°31' W 068°48'910.6
2018-Sep-10 02:59N 43°29' W 069°00'510.0
2018-Sep-10 02:26N 43°28' W 069°07'410.0
2018-Sep-10 02:01N 43°27' W 069°13'011.0
2018-Sep-10 01:59N 43°27' W 069°14'40 2.1
2018-Sep-09 07:00N 43°00' W 069°54'9 7.5 060 / 281023.810.8 18.0 20.0
2018-Sep-09 05:50N 42°57' W 070°05'8 8.5
2018-Sep-09 04:53N 42°50' W 070°12'4 9.8
2018-Sep-09 04:30N 42°47' W 070°15'4 9.3
2018-Sep-09 04:03N 42°44' W 070°19'1 8.9
2018-Sep-09 03:59N 42°44' W 070°20'4 8.5
2018-Sep-09 03:31N 42°42' W 070°24'4 8.1
2018-Sep-09 03:03N 42°39' W 070°27'0 8.4
2018-Sep-09 03:00N 42°38' W 070°27'4 8.4
2018-Sep-09 02:30N 42°35' W 070°31'4 8.5
2018-Sep-09 02:03N 42°33' W 070°35'0 8.6
2018-Sep-09 02:00N 42°32' W 070°35'4 8.6
2018-Sep-09 01:30N 42°30' W 070°40'4 8.5
2018-Sep-09 01:03N 42°27' W 070°44'0 8.3
2018-Sep-09 01:00N 42°27' W 070°44'4 8.6
2018-Sep-09 00:30N 42°25' W 070°50'4 9.4
2018-Sep-09 00:03N 42°23' W 070°54'114.5
2018-Sep-09 00:00N 42°22' W 070°55'4 8.0
2018-Sep-08 23:30N 42°20' W 070°60'1 1.4
2018-Sep-08 23:03N 42°20' W 071°00'0 6.1
2018-Sep-08 23:00N 42°20' W 071°01'1 0.1
2018-Sep-08 12:45N 42°21' W 071°02'0 0.0
2018-Sep-08 10:48N 42°21' W 071°02'0 0.8
2018-Sep-08 10:29N 42°21' W 071°01'3 6.0
2018-Sep-08 10:04N 42°20' W 070°58'111.9
2018-Sep-08 10:00N 42°20' W 070°57'713.3
2018-Sep-08 09:31N 42°24' W 070°50'4 9.0
2018-Sep-08 09:04N 42°23' W 070°44'0 8.3
2018-Sep-08 09:00N 42°23' W 070°44'4 7.5
2018-Sep-08 08:30N 42°22' W 070°39'4 8.2
2018-Sep-08 08:03N 42°22' W 070°34'0 8.4
2018-Sep-08 08:01N 42°22' W 070°33'4 8.6
2018-Sep-08 07:30N 42°21' W 070°28'4 9.0
2018-Sep-08 07:03N 42°21' W 070°22'0 8.2
2018-Sep-08 07:00N 42°21' W 070°22'4 7.8
2018-Sep-08 06:30N 42°21' W 070°16'4 9.5
2018-Sep-08 06:03N 42°20' W 070°11'111.6
2018-Sep-08 06:00N 42°20' W 070°10'4221.5
2018-Sep-08 06:00N 42°18' W 070°06'3 5.8 320 / 51018.810.8 21.0 22.0
2018-Sep-08 05:30N 42°20' W 070°03'4 7.4
2018-Sep-08 05:01N 42°18' W 069°59'0 7.8
2018-Sep-08 05:00N 42°18' W 069°59'4 7.8
2018-Sep-08 04:30N 42°14' W 069°57'4 8.3
2018-Sep-08 04:03N 42°11' W 069°54'0 8.9
2018-Sep-08 04:00N 42°11' W 069°54'4 8.6
2018-Sep-08 03:30N 42°07' W 069°52'4 8.3
2018-Sep-08 03:03N 42°03' W 069°49'0 8.0
2018-Sep-08 03:00N 42°03' W 069°49'4 7.7
2018-Sep-08 02:30N 41°60' W 069°47'4 8.0
2018-Sep-08 02:00N 41°56' W 069°44'4 7.8
2018-Sep-08 01:31N 41°53' W 069°42'4 8.0
2018-Sep-08 01:03N 41°49' W 069°40'1 8.2
2018-Sep-08 00:59N 41°49' W 069°39'4 8.2
2018-Sep-08 00:29N 41°45' W 069°37'4 8.4
2018-Sep-08 00:03N 41°42' W 069°35'0 8.5
2018-Sep-08 00:00N 41°42' W 069°34'4 8.6
2018-Sep-07 23:30N 41°38' W 069°32'4 9.0
2018-Sep-07 23:03N 41°34' W 069°29'0 9.2
2018-Sep-07 23:00N 41°34' W 069°29'5 9.5
2018-Sep-07 22:31N 41°29' W 069°26'70 6.8
2018-Sep-07 12:15N 40°25' W 070°03'211.5
2018-Sep-07 12:02N 40°25' W 070°06'011.4
2018-Sep-07 12:00N 40°25' W 070°07'6811.3
2018-Sep-07 06:00N 40°24' W 071°36'   330 / 71020.310.8 25.0 25.0
Track history (hours):
 
Tides and Currents Weather Stations Pressure Air Temp Water Temp Dewpoint Dewpoint Depression Visibility Wind Speed Wind Dir Waves Ship Positions

Anthem Of The Seas

Last reported at 2018-Sep-17 06:00 UTC. Time now 2018-Sep-19 03:23 UTC.
Position N 33°18' W 065°30'.

Length 348 m; draft 8.7 m.

Type: Passenger vessel. MMSI: 311000274.

Wind from 100 at 20 knots

Barometer 1019.5 mb
Air temperature 28.0 ° C
Water temperature 29.0 ° C

Date/timePositionNaut miles runAvg speedWind from/ knotsBaromVisibWave heightAir tempDewpointWater temp
2018-Sep-17 06:00N 33°18' W 065°30'3919.5 100 / 201019.5 28.0 29.0
2018-Sep-17 04:00N 33°48' W 066°00'41818.0 120 / 191020.3 28.0 29.0
2018-Sep-16 04:50N 38°52' W 071°56'917.7
2018-Sep-16 04:20N 38°59' W 072°04'517.4
2018-Sep-16 04:02N 39°03' W 072°08'017.3
2018-Sep-16 04:00N 39°03' W 072°09'1617.5
2018-Sep-16 03:06N 39°14' W 072°23'917.8
2018-Sep-16 02:35N 39°21' W 072°31'217.9
2018-Sep-16 02:28N 39°22' W 072°33'817.5
2018-Sep-16 02:03N 39°28' W 072°39'117.4
2018-Sep-16 02:00N 39°28' W 072°40'917.5
2018-Sep-16 01:30N 39°35' W 072°48'817.8
2018-Sep-16 01:03N 39°41' W 072°55'117.6
2018-Sep-16 01:00N 39°41' W 072°56'917.7
2018-Sep-16 00:30N 39°48' W 073°04'817.5
2018-Sep-16 00:04N 39°53' W 073°11'117.4
2018-Sep-16 00:00N 39°54' W 073°12'917.2
2018-Sep-15 23:30N 40°00' W 073°19'817.2
2018-Sep-15 23:04N 40°06' W 073°26'216.8
2018-Sep-15 22:57N 40°07' W 073°27'817.2
2018-Sep-15 22:30N 40°13' W 073°34'816.9
2018-Sep-15 22:03N 40°19' W 073°40'117.2
2018-Sep-15 22:00N 40°20' W 073°41'817.0
2018-Sep-15 21:30N 40°26' W 073°48'511.9
2018-Sep-15 21:03N 40°29' W 073°54'117.0
2018-Sep-15 21:01N 40°29' W 073°55'815.5
2018-Sep-15 20:30N 40°35' W 074°02'511.1
2018-Sep-15 20:03N 40°40' W 074°04'0 1.0
2018-Sep-15 19:58N 40°40' W 074°04'0 0.0
2018-Sep-15 19:28N 40°40' W 074°04'0 0.0
2018-Sep-15 19:01N 40°40' W 074°04'0 0.0
2018-Sep-15 18:58N 40°40' W 074°04'0 0.0
2018-Sep-15 18:28N 40°40' W 074°04'0 0.0
2018-Sep-15 17:58N 40°40' W 074°04'0 0.0
2018-Sep-15 17:28N 40°40' W 074°04'0 0.0
2018-Sep-15 16:58N 40°40' W 074°04'0 0.0
2018-Sep-15 16:28N 40°40' W 074°04'0 0.0
2018-Sep-15 15:58N 40°40' W 074°04'0 0.0
2018-Sep-15 15:28N 40°40' W 074°04'0 0.0
2018-Sep-15 14:58N 40°40' W 074°04'0 0.0
2018-Sep-15 13:58N 40°40' W 074°04'0 0.0
2018-Sep-15 13:28N 40°40' W 074°04'0 0.0
2018-Sep-15 12:58N 40°40' W 074°04'0 0.0
2018-Sep-15 12:28N 40°40' W 074°04'0 0.0
2018-Sep-15 11:58N 40°40' W 074°04'0 0.0
2018-Sep-15 11:28N 40°40' W 074°04'0 0.0
2018-Sep-15 11:03N 40°40' W 074°04'0 0.0
2018-Sep-15 11:00N 40°40' W 074°04'1 2.3
2018-Sep-15 10:30N 40°39' W 074°03'614.3
2018-Sep-15 10:04N 40°33' W 074°02'116.6
2018-Sep-15 10:01N 40°32' W 074°01'917.9
2018-Sep-15 09:30N 40°28' W 073°51'511.2
2018-Sep-15 09:04N 40°27' W 073°44'114.5
2018-Sep-15 09:00N 40°27' W 073°43'815.4
2018-Sep-15 08:30N 40°28' W 073°33'613.4
2018-Sep-15 08:03N 40°29' W 073°25'115.5
2018-Sep-15 08:00N 40°29' W 073°24'815.8
2018-Sep-15 07:30N 40°29' W 073°14'715.8
2018-Sep-15 07:03N 40°30' W 073°04'115.7
2018-Sep-15 07:00N 40°30' W 073°03'815.6
2018-Sep-15 06:30N 40°30' W 072°53'715.7
2018-Sep-15 06:04N 40°30' W 072°44'115.7
2018-Sep-15 06:01N 40°30' W 072°43'142.8
2018-Sep-15 06:00N 40°30' W 072°42'714.9 030 / 141022.510.8 22.0 22.0
2018-Sep-15 05:30N 40°31' W 072°32'815.4
2018-Sep-15 05:00N 40°31' W 072°22'815.6
2018-Sep-15 04:30N 40°31' W 072°12'816.3
2018-Sep-15 04:01N 40°31' W 072°02'117.6
2018-Sep-15 03:59N 40°31' W 072°01'815.7
2018-Sep-15 03:30N 40°31' W 071°51'715.5
2018-Sep-15 03:03N 40°32' W 071°42'115.5
2018-Sep-15 03:00N 40°32' W 071°41'815.3
2018-Sep-15 02:28N 40°32' W 071°30'615.4
2018-Sep-15 02:03N 40°32' W 071°22'115.6
2018-Sep-15 02:00N 40°32' W 071°21'815.5
2018-Sep-15 01:30N 40°32' W 071°10'715.3
2018-Sep-15 01:03N 40°32' W 071°01'115.4
2018-Sep-15 01:00N 40°32' W 071°00'815.4
2018-Sep-15 00:30N 40°33' W 070°50'715.4
2018-Sep-15 00:03N 40°33' W 070°41'115.5
2018-Sep-15 00:00N 40°33' W 070°40'815.5
2018-Sep-14 23:28N 40°33' W 070°29'615.8
2018-Sep-14 23:03N 40°33' W 070°21'115.6
2018-Sep-14 23:00N 40°33' W 070°20'815.7
2018-Sep-14 22:30N 40°33' W 070°09'716.4
2018-Sep-14 22:03N 40°33' W 069°59'116.7
2018-Sep-14 22:00N 40°33' W 069°58'816.6
2018-Sep-14 21:30N 40°32' W 069°47'816.7
2018-Sep-14 21:03N 40°33' W 069°38'116.5
2018-Sep-14 21:00N 40°33' W 069°36'816.5
2018-Sep-14 20:30N 40°34' W 069°26'716.3
2018-Sep-14 20:03N 40°34' W 069°16'116.1
2018-Sep-14 20:00N 40°34' W 069°15'1215.7
2018-Sep-14 19:14N 40°43' W 069°04'316.0
2018-Sep-14 19:02N 40°45' W 069°01'115.8
2018-Sep-14 19:00N 40°46' W 069°01'1115.9
2018-Sep-14 18:19N 40°55' W 068°53'715.2
2018-Sep-14 17:52N 41°01' W 068°49'514.9
2018-Sep-14 17:30N 41°06' W 068°46'815.0
2018-Sep-14 17:00N 41°13' W 068°42'714.9
2018-Sep-14 16:30N 41°20' W 068°39'815.1
2018-Sep-14 15:59N 41°27' W 068°34'715.0
2018-Sep-14 15:30N 41°33' W 068°31'614.2
2018-Sep-14 15:03N 41°40' W 068°28'111.6
2018-Sep-14 15:01N 41°40' W 068°28'510.8
2018-Sep-14 14:30N 41°45' W 068°25'711.4
2018-Sep-14 13:56N 41°51' W 068°21'912.1
2018-Sep-14 13:12N 41°59' W 068°17'212.2
2018-Sep-14 13:02N 42°01' W 068°16'312.4
2018-Sep-14 12:50N 42°03' W 068°14'412.4
2018-Sep-14 12:30N 42°07' W 068°12'612.5
2018-Sep-14 12:01N 42°13' W 068°09'112.7
2018-Sep-14 11:54N 42°14' W 068°08'713.3
2018-Sep-14 11:23N 42°20' W 068°04'513.9
2018-Sep-14 11:03N 42°25' W 068°02'114.0
2018-Sep-14 11:00N 42°25' W 068°01'713.4
2018-Sep-14 10:31N 42°31' W 067°58'712.8
2018-Sep-14 09:58N 42°38' W 067°54'612.2
2018-Sep-14 09:29N 42°43' W 067°51'812.7
2018-Sep-14 08:52N 42°50' W 067°46'812.7
2018-Sep-14 08:13N 42°58' W 067°42'212.7
2018-Sep-14 08:01N 43°00' W 067°41'2726.1
2018-Sep-14 07:00N 43°24' W 067°24'136 2.8 340 / 111024.410.8 19.0 18.0
2018-Sep-12 06:00N 43°42' W 064°18'169 3.8 210 / 291021.9 5.4 23.0 20.0
2018-Sep-10 09:02N 44°14' W 068°08'1 9.8
2018-Sep-10 08:56N 44°13' W 068°08'410.3
2018-Sep-10 08:30N 44°09' W 068°08'610.5
2018-Sep-10 07:57N 44°03' W 068°09'510.4
2018-Sep-10 07:30N 43°59' W 068°11'510.7
2018-Sep-10 07:01N 43°54' W 068°14'010.9
2018-Sep-10 06:59N 43°54' W 068°15'510.7
2018-Sep-10 06:30N 43°49' W 068°18'510.5
2018-Sep-10 06:03N 43°45' W 068°22'110.3
2018-Sep-10 06:00N 43°45' W 068°22'42171.8
2018-Sep-10 06:00N 43°42' W 068°18'714.1 060 / 181028.510.8 16.0 17.0
2018-Sep-10 05:29N 43°41' W 068°28'510.8
2018-Sep-10 05:03N 43°38' W 068°33'510.9
2018-Sep-10 04:34N 43°35' W 068°38'811.0
2018-Sep-10 03:50N 43°31' W 068°48'910.6
2018-Sep-10 02:59N 43°29' W 069°00'510.0
2018-Sep-10 02:26N 43°28' W 069°07'410.0
2018-Sep-10 02:01N 43°27' W 069°13'011.0
2018-Sep-10 01:59N 43°27' W 069°14'40 2.1
2018-Sep-09 07:00N 43°00' W 069°54'9 7.5 060 / 281023.810.8 18.0 20.0
2018-Sep-09 05:50N 42°57' W 070°05'8 8.5
2018-Sep-09 04:53N 42°50' W 070°12'4 9.8
2018-Sep-09 04:30N 42°47' W 070°15'4 9.3
2018-Sep-09 04:03N 42°44' W 070°19'1 8.9
2018-Sep-09 03:59N 42°44' W 070°20'4 8.5
2018-Sep-09 03:31N 42°42' W 070°24'4 8.1
2018-Sep-09 03:03N 42°39' W 070°27'0 8.4
2018-Sep-09 03:00N 42°38' W 070°27'4 8.4
2018-Sep-09 02:30N 42°35' W 070°31'4 8.5
2018-Sep-09 02:03N 42°33' W 070°35'0 8.6
2018-Sep-09 02:00N 42°32' W 070°35'4 8.6
2018-Sep-09 01:30N 42°30' W 070°40'4 8.5
2018-Sep-09 01:03N 42°27' W 070°44'0 8.3
2018-Sep-09 01:00N 42°27' W 070°44'4 8.6
2018-Sep-09 00:30N 42°25' W 070°50'4 9.4
2018-Sep-09 00:03N 42°23' W 070°54'114.5
2018-Sep-09 00:00N 42°22' W 070°55'4 8.0
2018-Sep-08 23:30N 42°20' W 070°60'1 1.4
2018-Sep-08 23:03N 42°20' W 071°00'0 6.1
2018-Sep-08 23:00N 42°20' W 071°01'1 0.1
2018-Sep-08 12:45N 42°21' W 071°02'0 0.0
2018-Sep-08 10:48N 42°21' W 071°02'0 0.8
2018-Sep-08 10:29N 42°21' W 071°01'3 6.0
2018-Sep-08 10:04N 42°20' W 070°58'111.9
2018-Sep-08 10:00N 42°20' W 070°57'713.3
2018-Sep-08 09:31N 42°24' W 070°50'4 9.0
2018-Sep-08 09:04N 42°23' W 070°44'0 8.3
2018-Sep-08 09:00N 42°23' W 070°44'4 7.5
2018-Sep-08 08:30N 42°22' W 070°39'4 8.2
2018-Sep-08 08:03N 42°22' W 070°34'0 8.4
2018-Sep-08 08:01N 42°22' W 070°33'4 8.6
2018-Sep-08 07:30N 42°21' W 070°28'4 9.0
2018-Sep-08 07:03N 42°21' W 070°22'0 8.2
2018-Sep-08 07:00N 42°21' W 070°22'4 7.8
2018-Sep-08 06:30N 42°21' W 070°16'4 9.5
2018-Sep-08 06:03N 42°20' W 070°11'111.6
2018-Sep-08 06:00N 42°20' W 070°10'4221.5
2018-Sep-08 06:00N 42°18' W 070°06'3 5.8 320 / 51018.810.8 21.0 22.0
2018-Sep-08 05:30N 42°20' W 070°03'4 7.4
2018-Sep-08 05:01N 42°18' W 069°59'0 7.8
2018-Sep-08 05:00N 42°18' W 069°59'4 7.8
2018-Sep-08 04:30N 42°14' W 069°57'4 8.3
2018-Sep-08 04:03N 42°11' W 069°54'0 8.9
2018-Sep-08 04:00N 42°11' W 069°54'4 8.6
2018-Sep-08 03:30N 42°07' W 069°52'4 8.3
2018-Sep-08 03:03N 42°03' W 069°49'0 8.0
2018-Sep-08 03:00N 42°03' W 069°49'4 7.7
2018-Sep-08 02:30N 41°60' W 069°47'4 8.0
2018-Sep-08 02:00N 41°56' W 069°44'4 7.8
2018-Sep-08 01:31N 41°53' W 069°42'4 8.0
2018-Sep-08 01:03N 41°49' W 069°40'1 8.2
2018-Sep-08 00:59N 41°49' W 069°39'4 8.2
2018-Sep-08 00:29N 41°45' W 069°37'4 8.4
2018-Sep-08 00:03N 41°42' W 069°35'0 8.5
2018-Sep-08 00:00N 41°42' W 069°34'4 8.6
2018-Sep-07 23:30N 41°38' W 069°32'4 9.0
2018-Sep-07 23:03N 41°34' W 069°29'0 9.2
2018-Sep-07 23:00N 41°34' W 069°29'5 9.5
2018-Sep-07 22:31N 41°29' W 069°26'70 6.8
2018-Sep-07 12:15N 40°25' W 070°03'211.5
2018-Sep-07 12:02N 40°25' W 070°06'011.4
2018-Sep-07 12:00N 40°25' W 070°07'6811.3
2018-Sep-07 06:00N 40°24' W 071°36'   330 / 71020.310.8 25.0 25.0

Dump ship's entire track history